createdAt,value
2023-05-14T00:00:31.098Z,61.20
2023-05-14T00:02:57.951Z,62.04
2023-05-14T00:05:24.943Z,61.93
2023-05-14T00:07:51.785Z,61.49
2023-05-14T00:10:20.377Z,61.15
2023-05-14T00:12:47.503Z,61.33
2023-05-14T00:15:14.179Z,61.23
2023-05-14T00:17:42.389Z,61.26
2023-05-14T00:20:11.167Z,61.52
2023-05-14T00:22:39.428Z,61.37
2023-05-14T00:25:07.709Z,61.29
2023-05-14T00:27:35.174Z,61.32
2023-05-14T00:30:02.484Z,60.99
2023-05-14T00:32:29.229Z,61.21
2023-05-14T00:34:55.896Z,61.07
2023-05-14T00:37:22.524Z,61.81
2023-05-14T00:39:49.240Z,62.35
2023-05-14T00:42:15.970Z,62.20
2023-05-14T00:44:42.668Z,62.87
2023-05-14T00:47:09.574Z,62.40
2023-05-14T00:49:36.615Z,62.28
2023-05-14T00:52:03.558Z,62.36
2023-05-14T00:54:30.497Z,61.97
2023-05-14T00:56:57.664Z,62.00
2023-05-14T00:59:24.377Z,62.03
2023-05-14T01:01:51.182Z,63.46
2023-05-14T01:04:18.476Z,63.58
2023-05-14T01:07:13.454Z,63.21
2023-05-14T01:10:05.283Z,62.69
2023-05-14T01:12:57.732Z,61.79
2023-05-14T01:15:30.602Z,61.64
2023-05-14T01:18:13.662Z,60.78
2023-05-14T01:20:40.592Z,61.25
2023-05-14T01:23:08.127Z,63.21
2023-05-14T01:25:35.271Z,63.98
2023-05-14T01:28:18.767Z,64.15
2023-05-14T01:30:52.011Z,63.70
2023-05-14T01:33:19.618Z,63.45
2023-05-14T01:35:48.341Z,63.13
2023-05-14T01:38:17.888Z,62.78
2023-05-14T01:40:46.050Z,62.47
2023-05-14T01:43:13.388Z,63.64
2023-05-14T01:45:41.433Z,63.64
2023-05-14T01:48:08.167Z,63.16
2023-05-14T01:50:34.873Z,62.55
2023-05-14T01:53:01.581Z,62.69
2023-05-14T01:55:28.197Z,63.48
2023-05-14T01:57:54.944Z,62.97
2023-05-14T02:00:24.516Z,63.29
2023-05-14T02:02:51.564Z,63.29
2023-05-14T02:05:18.695Z,63.38
2023-05-14T02:07:45.345Z,63.66
2023-05-14T02:10:12.056Z,63.81
2023-05-14T02:12:38.699Z,63.43
2023-05-14T02:15:05.996Z,63.41
2023-05-14T02:17:33.232Z,63.44
2023-05-14T02:19:59.888Z,63.06
2023-05-14T02:22:26.638Z,62.70
2023-05-14T02:24:53.291Z,62.85
2023-05-14T02:27:20.104Z,63.23
2023-05-14T02:29:47.870Z,64.22
2023-05-14T02:32:14.547Z,64.87
2023-05-14T02:34:41.241Z,64.57
2023-05-14T02:37:07.850Z,64.73
2023-05-14T02:39:34.525Z,64.61
2023-05-14T02:42:01.170Z,64.82
2023-05-14T02:44:27.806Z,64.87
2023-05-14T02:46:54.525Z,64.75
2023-05-14T02:49:21.619Z,65.18
2023-05-14T02:51:48.262Z,64.68
2023-05-14T02:54:16.439Z,64.79
2023-05-14T02:56:43.285Z,64.66
2023-05-14T02:59:09.958Z,64.17
2023-05-14T03:01:37.157Z,64.81
2023-05-14T03:04:04.488Z,64.41
2023-05-14T03:06:31.593Z,64.61
2023-05-14T03:08:58.207Z,64.89
2023-05-14T03:11:25.443Z,64.69
2023-05-14T03:13:52.240Z,64.67
2023-05-14T03:16:18.945Z,64.39
2023-05-14T03:18:45.623Z,64.09
2023-05-14T03:21:12.965Z,64.57
2023-05-14T03:23:39.833Z,64.29
2023-05-14T03:26:06.553Z,64.37
2023-05-14T03:28:33.616Z,65.07
2023-05-14T03:31:00.940Z,64.69
2023-05-14T03:33:28.050Z,64.71
2023-05-14T03:35:54.692Z,65.25
2023-05-14T03:38:21.405Z,65.04
2023-05-14T03:40:48.110Z,65.13
2023-05-14T03:43:14.892Z,65.42
2023-05-14T03:45:42.397Z,64.92
2023-05-14T03:48:09.232Z,65.36
2023-05-14T03:50:37.241Z,65.34
2023-05-14T03:53:03.870Z,65.29
2023-05-14T03:55:30.555Z,65.45
2023-05-14T03:57:57.200Z,65.16
2023-05-14T04:00:24.312Z,64.78
2023-05-14T04:02:52.836Z,63.82
2023-05-14T04:05:19.655Z,63.57
2023-05-14T04:07:47.270Z,63.47
2023-05-14T04:10:14.063Z,63.17
2023-05-14T04:12:40.703Z,63.59
2023-05-14T04:15:08.783Z,63.63
2023-05-14T04:17:35.726Z,64.08
2023-05-14T04:20:02.513Z,64.00
2023-05-14T04:22:29.234Z,63.66
2023-05-14T04:24:55.807Z,63.64
2023-05-14T04:27:22.558Z,63.51
2023-05-14T04:29:50.326Z,64.38
2023-05-14T04:32:17.711Z,63.80
2023-05-14T04:34:44.458Z,63.80
2023-05-14T04:37:11.113Z,63.91
2023-05-14T04:39:38.318Z,63.63
2023-05-14T04:42:06.555Z,63.48
2023-05-14T04:44:34.377Z,64.41
2023-05-14T04:47:00.979Z,64.30
2023-05-14T04:49:28.016Z,63.95
2023-05-14T04:51:54.683Z,63.84
2023-05-14T04:54:21.651Z,63.73
2023-05-14T04:56:48.347Z,63.56
2023-05-14T04:59:15.037Z,63.52
2023-05-14T05:01:41.736Z,63.24
2023-05-14T05:04:08.645Z,62.78
2023-05-14T05:06:35.372Z,62.73
2023-05-14T05:09:02.418Z,62.05
2023-05-14T05:11:29.068Z,61.74
2023-05-14T05:13:55.819Z,61.94
2023-05-14T05:16:22.829Z,61.07
2023-05-14T05:18:49.686Z,60.71
2023-05-14T05:21:16.413Z,60.11
2023-05-14T05:23:43.053Z,59.44
2023-05-14T05:26:09.812Z,59.06
2023-05-14T05:28:36.460Z,58.54
2023-05-14T05:31:03.225Z,58.13
2023-05-14T05:33:29.876Z,57.28
2023-05-14T05:35:56.535Z,56.70
2023-05-14T05:38:23.171Z,56.10
2023-05-14T05:40:49.851Z,55.06
2023-05-14T05:43:16.748Z,54.63
2023-05-14T05:45:43.485Z,54.20
2023-05-14T05:48:10.135Z,53.50
2023-05-14T05:50:37.103Z,52.27
2023-05-14T05:53:04.025Z,51.50
2023-05-14T05:55:30.753Z,51.34
2023-05-14T05:57:57.438Z,50.63
2023-05-14T06:00:24.811Z,50.52
2023-05-14T06:02:52.326Z,50.22
2023-05-14T06:05:19.541Z,49.95
2023-05-14T06:07:46.296Z,49.70
2023-05-14T06:10:12.986Z,48.66
2023-05-14T06:12:40.431Z,48.96
2023-05-14T06:15:07.567Z,47.94
2023-05-14T06:17:34.244Z,46.96
2023-05-14T06:20:00.934Z,45.68
2023-05-14T06:22:27.667Z,46.08
2023-05-14T06:24:54.345Z,46.87
2023-05-14T06:27:21.018Z,47.73
2023-05-14T06:29:47.647Z,47.00
2023-05-14T06:32:15.630Z,46.54
2023-05-14T06:34:42.607Z,45.54
2023-05-14T06:37:10.465Z,46.51
2023-05-14T06:39:37.754Z,46.03
2023-05-14T06:42:05.217Z,44.80
2023-05-14T06:44:32.252Z,44.94
2023-05-14T06:46:58.948Z,42.51
2023-05-14T06:49:25.660Z,43.11
2023-05-14T06:51:52.328Z,42.55
2023-05-14T06:54:20.438Z,42.04
2023-05-14T06:56:47.144Z,41.63
2023-05-14T06:59:16.677Z,40.30
2023-05-14T07:01:43.542Z,40.81
2023-05-14T07:04:10.262Z,40.16
2023-05-14T07:06:36.942Z,39.45
2023-05-14T07:09:03.729Z,38.99
2023-05-14T07:11:30.583Z,40.18
2023-05-14T07:13:57.340Z,41.56
2023-05-14T07:16:24.021Z,40.26
2023-05-14T07:18:51.042Z,39.84
2023-05-14T07:21:18.078Z,40.37
2023-05-14T07:23:44.732Z,40.03
2023-05-14T07:26:11.689Z,40.10
2023-05-14T07:28:38.371Z,38.65
2023-05-14T07:31:08.807Z,40.19
2023-05-14T07:33:36.547Z,39.83
2023-05-14T07:36:03.274Z,39.34
2023-05-14T07:38:30.045Z,38.52
2023-05-14T07:40:56.756Z,37.46
2023-05-14T07:43:23.482Z,36.98
2023-05-14T07:45:50.255Z,37.21
2023-05-14T07:48:17.235Z,36.59
2023-05-14T07:50:44.130Z,37.21
2023-05-14T07:53:10.839Z,37.87
2023-05-14T07:55:37.472Z,37.47
2023-05-14T07:58:04.139Z,37.67
2023-05-14T08:00:30.768Z,38.30
2023-05-14T08:02:57.623Z,37.74
2023-05-14T08:05:24.498Z,38.75
2023-05-14T08:07:51.138Z,37.90
2023-05-14T08:10:17.792Z,38.47
2023-05-14T08:12:44.565Z,37.14
2023-05-14T08:15:12.359Z,36.41
2023-05-14T08:17:39.080Z,36.18
2023-05-14T08:20:08.985Z,36.57
2023-05-14T08:22:35.676Z,37.41
2023-05-14T08:25:03.780Z,38.57
2023-05-14T08:27:30.958Z,39.64
2023-05-14T08:29:57.742Z,38.78
2023-05-14T08:32:24.453Z,39.03
2023-05-14T08:34:51.518Z,40.32
2023-05-14T08:37:18.319Z,39.41
2023-05-14T08:39:44.955Z,38.79
2023-05-14T08:42:13.228Z,37.95
2023-05-14T08:44:48.915Z,36.71
2023-05-14T08:47:18.623Z,38.19
2023-05-14T08:49:47.545Z,40.29
2023-05-14T08:52:17.956Z,41.21
2023-05-14T08:54:46.519Z,40.70
2023-05-14T08:57:14.295Z,38.49
2023-05-14T08:59:41.203Z,37.55
2023-05-14T09:02:11.778Z,36.45
2023-05-14T09:04:39.138Z,34.40
2023-05-14T09:07:07.360Z,31.68
2023-05-14T09:09:34.322Z,30.06
2023-05-14T09:12:01.737Z,28.42
2023-05-14T09:14:28.554Z,27.75
2023-05-14T09:16:55.773Z,26.34
2023-05-14T09:19:22.730Z,26.34
2023-05-14T09:21:49.918Z,25.26
2023-05-14T09:24:24.099Z,23.93
2023-05-14T09:26:56.282Z,22.60
2023-05-14T09:29:29.761Z,22.02
2023-05-14T09:31:58.194Z,21.49
2023-05-14T09:34:32.551Z,21.41
2023-05-14T09:37:04.482Z,21.40
2023-05-14T09:39:32.732Z,21.58
2023-05-14T09:41:59.900Z,21.07
2023-05-14T09:44:27.525Z,20.20
2023-05-14T09:46:54.721Z,19.45
2023-05-14T09:49:21.727Z,19.30
2023-05-14T09:51:49.295Z,19.65
2023-05-14T09:54:15.994Z,18.81
2023-05-14T09:56:43.614Z,17.78
2023-05-14T09:59:10.955Z,16.92
2023-05-14T10:01:38.222Z,18.21
2023-05-14T10:04:07.759Z,19.15
2023-05-14T10:06:38.154Z,18.27
2023-05-14T10:09:09.854Z,18.07
2023-05-14T10:11:38.349Z,18.46
2023-05-14T10:14:09.020Z,19.03
2023-05-14T10:16:40.338Z,21.10
2023-05-14T10:19:11.431Z,23.11
2023-05-14T10:21:40.980Z,23.61
2023-05-14T10:24:09.689Z,22.56
2023-05-14T10:26:39.449Z,22.04
2023-05-14T10:29:06.789Z,21.10
2023-05-14T10:31:53.737Z,18.99
2023-05-14T10:34:40.966Z,18.42
2023-05-14T10:37:18.643Z,19.17
2023-05-14T10:39:51.248Z,20.11
2023-05-14T10:42:19.014Z,21.33
2023-05-14T10:44:58.569Z,21.42
2023-05-14T10:47:29.342Z,20.37
2023-05-14T10:49:58.359Z,19.33
2023-05-14T10:52:26.284Z,17.17
2023-05-14T10:54:57.728Z,17.22
2023-05-14T10:57:27.157Z,18.03
2023-05-14T10:59:56.030Z,18.72
2023-05-14T11:02:27.854Z,18.39
2023-05-14T11:05:05.641Z,17.76
2023-05-14T11:07:37.932Z,18.25
2023-05-14T11:10:11.790Z,18.50
2023-05-14T11:12:40.675Z,17.96
2023-05-14T11:15:09.630Z,17.41
2023-05-14T11:17:37.420Z,17.40
2023-05-14T11:20:07.956Z,17.77
2023-05-14T11:22:35.750Z,18.42
2023-05-14T11:25:03.048Z,20.05
2023-05-14T11:27:30.865Z,21.34
2023-05-14T11:29:58.094Z,20.74
2023-05-14T11:32:25.940Z,21.02
2023-05-14T11:34:53.120Z,18.93
2023-05-14T11:37:20.252Z,16.56
2023-05-14T11:39:52.255Z,16.54
2023-05-14T11:42:20.188Z,16.80
2023-05-14T11:44:51.784Z,16.98
2023-05-14T11:47:20.667Z,17.50
2023-05-14T11:49:48.619Z,16.52
2023-05-14T11:52:16.444Z,16.27
2023-05-14T11:54:43.931Z,17.19
2023-05-14T11:57:19.195Z,17.46
2023-05-14T11:59:46.182Z,18.67
2023-05-14T12:02:14.877Z,18.68
2023-05-14T12:04:42.723Z,17.57
2023-05-14T12:07:11.651Z,16.58
2023-05-14T12:09:43.034Z,17.46
2023-05-14T12:12:12.797Z,18.04
2023-05-14T12:14:42.497Z,19.70
2023-05-14T12:17:19.097Z,25.52
2023-05-14T12:19:48.227Z,31.59
2023-05-14T12:22:18.207Z,29.01
2023-05-14T12:24:54.062Z,31.19
2023-05-14T12:27:24.653Z,29.40
2023-05-14T12:30:19.067Z,29.46
2023-05-14T12:32:46.849Z,28.03
2023-05-14T12:35:13.520Z,26.80
2023-05-14T12:37:40.219Z,24.59
2023-05-14T12:40:10.171Z,25.73
2023-05-14T12:42:37.340Z,26.50
2023-05-14T12:45:07.085Z,28.49
2023-05-14T12:47:34.169Z,29.00
2023-05-14T12:50:00.897Z,31.06
2023-05-14T12:52:37.677Z,32.62
2023-05-14T12:55:07.082Z,34.47
2023-05-14T12:57:35.507Z,36.05
2023-05-14T13:00:06.840Z,37.41
2023-05-14T13:02:43.072Z,36.66
2023-05-14T13:05:11.297Z,36.08
2023-05-14T13:07:38.418Z,36.17
2023-05-14T13:10:05.836Z,37.02
2023-05-14T13:12:32.725Z,36.23
2023-05-14T13:14:59.604Z,41.53
2023-05-14T13:17:26.431Z,43.13
2023-05-14T13:19:53.127Z,45.69
2023-05-14T13:22:19.822Z,42.35
2023-05-14T13:24:46.558Z,44.54
2023-05-14T13:27:13.257Z,45.55
2023-05-14T13:29:39.930Z,43.09
2023-05-14T13:32:07.093Z,46.25
2023-05-14T13:34:33.904Z,41.79
2023-05-14T13:37:01.069Z,42.04
2023-05-14T13:39:27.778Z,41.78
2023-05-14T13:41:56.625Z,40.31
2023-05-14T13:44:23.559Z,39.18
2023-05-14T13:46:50.475Z,36.52
2023-05-14T13:49:17.342Z,38.92
2023-05-14T13:51:44.131Z,38.30
2023-05-14T13:54:10.807Z,37.12
2023-05-14T13:56:37.493Z,35.09
2023-05-14T13:59:04.288Z,33.06
2023-05-14T14:01:31.550Z,33.53
2023-05-14T14:03:58.442Z,32.64
2023-05-14T14:06:27.284Z,32.21
2023-05-14T14:08:53.996Z,31.74
2023-05-14T14:11:20.903Z,34.53
2023-05-14T14:13:47.766Z,31.65
2023-05-14T14:16:15.104Z,32.89
2023-05-14T14:18:43.038Z,34.34
2023-05-14T14:21:10.298Z,33.44
2023-05-14T14:23:37.019Z,32.38
2023-05-14T14:26:03.820Z,33.11
2023-05-14T14:28:31.236Z,31.45
2023-05-14T14:30:58.031Z,32.29
2023-05-14T14:33:24.734Z,33.57
2023-05-14T14:35:51.802Z,32.90
2023-05-14T14:38:19.771Z,32.62
2023-05-14T14:40:46.762Z,32.98
2023-05-14T14:43:13.500Z,33.40
2023-05-14T14:45:40.274Z,32.59
2023-05-14T14:48:26.743Z,32.53
2023-05-14T14:50:53.933Z,32.49
2023-05-14T14:53:21.615Z,32.94
2023-05-14T14:55:48.906Z,33.21
2023-05-14T14:58:15.848Z,34.35
2023-05-14T15:00:43.642Z,34.02
2023-05-14T15:03:10.523Z,33.57
2023-05-14T15:05:37.718Z,34.91
2023-05-14T15:08:04.854Z,31.94
2023-05-14T15:10:32.532Z,32.08
2023-05-14T15:12:59.793Z,31.15
2023-05-14T15:15:26.686Z,32.10
2023-05-14T15:17:53.539Z,31.94
2023-05-14T15:20:20.371Z,32.87
2023-05-14T15:22:47.172Z,34.09
2023-05-14T15:25:14.037Z,34.17
2023-05-14T15:27:40.811Z,33.82
2023-05-14T15:30:08.134Z,35.17
2023-05-14T15:32:34.821Z,34.51
2023-05-14T15:35:01.623Z,33.59
2023-05-14T15:37:28.292Z,33.73
2023-05-14T15:39:54.997Z,33.50
2023-05-14T15:42:21.598Z,34.02
2023-05-14T15:44:48.203Z,33.99
2023-05-14T15:47:15.020Z,33.13
2023-05-14T15:49:41.630Z,33.28
2023-05-14T15:52:08.349Z,34.09
2023-05-14T15:54:34.998Z,34.95
2023-05-14T15:57:01.671Z,35.15
2023-05-14T15:59:28.322Z,35.24
2023-05-14T16:01:55.006Z,34.84
2023-05-14T16:04:21.729Z,35.11
2023-05-14T16:06:48.400Z,36.22
2023-05-14T16:09:15.032Z,36.28
2023-05-14T16:11:41.953Z,36.74
2023-05-14T16:14:08.605Z,36.45
2023-05-14T16:16:36.485Z,36.49
2023-05-14T16:19:03.349Z,35.97
2023-05-14T16:21:30.032Z,35.64
2023-05-14T16:23:56.829Z,36.04
2023-05-14T16:26:23.518Z,37.76
2023-05-14T16:28:50.303Z,43.06
2023-05-14T16:31:17.039Z,47.09
2023-05-14T16:33:43.680Z,49.73
2023-05-14T16:36:10.444Z,51.36
2023-05-14T16:38:41.503Z,53.19
2023-05-14T16:41:14.906Z,50.22
2023-05-14T16:43:41.592Z,49.07
2023-05-14T16:46:08.335Z,52.65
2023-05-14T16:48:35.065Z,54.53
2023-05-14T16:51:01.777Z,53.76
2023-05-14T16:53:28.414Z,50.99
2023-05-14T16:55:55.284Z,51.89
2023-05-14T16:58:21.910Z,52.90
2023-05-14T17:00:48.532Z,51.77
2023-05-14T17:03:15.319Z,54.10
2023-05-14T17:05:42.461Z,56.81
2023-05-14T17:08:09.140Z,55.66
2023-05-14T17:10:35.999Z,57.12
2023-05-14T17:13:02.829Z,55.70
2023-05-14T17:15:29.661Z,54.38
2023-05-14T17:17:56.249Z,52.98
2023-05-14T17:20:23.107Z,52.04
2023-05-14T17:22:49.940Z,54.47
2023-05-14T17:25:16.812Z,55.02
2023-05-14T17:27:43.515Z,53.03
2023-05-14T17:30:10.557Z,53.55
2023-05-14T17:32:37.401Z,52.84
2023-05-14T17:35:05.205Z,54.99
2023-05-14T17:37:33.203Z,52.50
2023-05-14T17:39:59.884Z,55.99
2023-05-14T17:42:26.513Z,56.46
2023-05-14T17:44:53.783Z,56.08
2023-05-14T17:47:20.853Z,56.68
2023-05-14T17:49:51.088Z,57.57
2023-05-14T17:52:17.833Z,58.85
2023-05-14T17:54:44.486Z,57.36
2023-05-14T17:57:11.334Z,57.68
2023-05-14T17:59:38.005Z,58.24
2023-05-14T18:02:05.638Z,56.02
2023-05-14T18:04:32.287Z,56.92
2023-05-14T18:07:00.892Z,55.33
2023-05-14T18:09:27.565Z,53.00
2023-05-14T18:11:56.668Z,55.26
2023-05-14T18:14:23.654Z,56.69
2023-05-14T18:16:50.385Z,59.50
2023-05-14T18:19:17.156Z,59.38
2023-05-14T18:21:46.490Z,60.15
2023-05-14T18:24:13.126Z,60.67
2023-05-14T18:26:39.849Z,60.73
2023-05-14T18:29:06.416Z,60.58
2023-05-14T18:31:33.126Z,60.72
2023-05-14T18:33:59.973Z,60.22
2023-05-14T18:36:26.644Z,59.80
2023-05-14T18:38:53.295Z,60.34
2023-05-14T18:41:19.917Z,58.44
2023-05-14T18:43:46.544Z,57.01
2023-05-14T18:46:13.540Z,57.38
2023-05-14T18:48:40.297Z,56.94
2023-05-14T18:51:07.557Z,54.41
2023-05-14T18:53:34.182Z,56.23
2023-05-14T18:56:00.985Z,56.44
2023-05-14T18:58:28.142Z,57.36
2023-05-14T19:00:57.705Z,58.07
2023-05-14T19:03:25.104Z,58.97
2023-05-14T19:05:53.166Z,59.12
2023-05-14T19:08:20.532Z,59.58
2023-05-14T19:10:47.267Z,59.62
2023-05-14T19:13:15.818Z,58.96
2023-05-14T19:15:43.190Z,57.90
2023-05-14T19:18:10.071Z,58.57
2023-05-14T19:20:36.695Z,58.78
2023-05-14T19:23:03.299Z,57.97
2023-05-14T19:25:29.993Z,56.66
2023-05-14T19:27:57.281Z,57.66
2023-05-14T19:30:24.012Z,60.62
2023-05-14T19:32:50.785Z,60.60
2023-05-14T19:35:17.551Z,60.60
2023-05-14T19:37:44.323Z,58.55
2023-05-14T19:40:11.326Z,59.35
2023-05-14T19:42:38.092Z,60.18
2023-05-14T19:45:05.210Z,59.37
2023-05-14T19:47:32.296Z,57.57
2023-05-14T19:49:59.044Z,57.81
2023-05-14T19:52:25.700Z,58.31
2023-05-14T19:54:52.348Z,58.21
2023-05-14T19:57:18.991Z,58.66
2023-05-14T19:59:45.667Z,58.75
2023-05-14T20:02:18.090Z,59.39
2023-05-14T20:04:46.010Z,59.53
2023-05-14T20:07:15.546Z,59.17
2023-05-14T20:09:42.521Z,59.81
2023-05-14T20:12:09.585Z,60.08
2023-05-14T20:14:36.275Z,60.15
2023-05-14T20:17:03.337Z,60.41
2023-05-14T20:19:30.556Z,60.85
2023-05-14T20:21:57.256Z,61.26
2023-05-14T20:24:23.917Z,62.00
2023-05-14T20:26:50.739Z,61.78
2023-05-14T20:29:17.409Z,61.21
2023-05-14T20:31:44.024Z,62.22
2023-05-14T20:34:10.636Z,61.70
2023-05-14T20:36:37.401Z,61.03
2023-05-14T20:39:06.160Z,59.51
2023-05-14T20:41:32.858Z,61.29
2023-05-14T20:43:59.657Z,62.22
2023-05-14T20:46:26.533Z,62.00
2023-05-14T20:48:56.868Z,62.93
2023-05-14T20:51:23.482Z,63.11
2023-05-14T20:53:50.077Z,62.23
2023-05-14T20:56:16.740Z,61.61
2023-05-14T20:58:43.479Z,61.62
2023-05-14T21:01:10.487Z,59.49
2023-05-14T21:03:37.258Z,59.10
2023-05-14T21:06:04.184Z,58.97
2023-05-14T21:08:32.906Z,58.28
2023-05-14T21:10:59.916Z,58.06
2023-05-14T21:13:26.592Z,58.80
2023-05-14T21:15:53.281Z,58.38
2023-05-14T21:18:19.992Z,58.12
2023-05-14T21:20:46.611Z,58.02
2023-05-14T21:23:13.737Z,56.80
2023-05-14T21:25:40.545Z,58.93
2023-05-14T21:28:07.758Z,58.42
2023-05-14T21:30:34.436Z,58.20
2023-05-14T21:33:01.191Z,57.21
2023-05-14T21:35:28.039Z,56.27
2023-05-14T21:37:54.722Z,56.27
2023-05-14T21:40:21.367Z,56.95
2023-05-14T21:42:48.093Z,56.68
2023-05-14T21:45:14.891Z,56.44
2023-05-14T21:47:41.703Z,56.46
2023-05-14T21:50:08.949Z,55.59
2023-05-14T21:52:36.543Z,56.92
2023-05-14T21:55:03.391Z,56.83
2023-05-14T21:57:32.331Z,57.09
2023-05-14T22:00:00.868Z,56.42
2023-05-14T22:02:27.668Z,56.10
2023-05-14T22:04:54.305Z,55.81
2023-05-14T22:07:21.058Z,56.15
2023-05-14T22:09:48.150Z,57.47
2023-05-14T22:12:14.867Z,57.58
2023-05-14T22:14:41.816Z,57.17
2023-05-14T22:17:08.707Z,57.09
2023-05-14T22:19:35.397Z,55.53
2023-05-14T22:22:02.109Z,56.61
2023-05-14T22:24:28.760Z,56.73
2023-05-14T22:26:55.567Z,59.10
2023-05-14T22:29:22.219Z,60.67
2023-05-14T22:31:49.023Z,60.18
2023-05-14T22:34:16.160Z,59.70
2023-05-14T22:36:42.861Z,59.72
2023-05-14T22:39:11.308Z,59.92
2023-05-14T22:41:39.428Z,60.17
2023-05-14T22:44:06.069Z,59.43
2023-05-14T22:46:32.835Z,59.33
2023-05-14T22:49:00.035Z,58.13
2023-05-14T22:51:26.766Z,57.87
2023-05-14T22:53:54.150Z,56.69
2023-05-14T22:56:22.133Z,56.22
2023-05-14T22:58:48.839Z,56.67
2023-05-14T23:01:15.536Z,56.56
2023-05-14T23:03:42.238Z,57.46
2023-05-14T23:06:08.860Z,57.52
2023-05-14T23:08:35.544Z,58.82
2023-05-14T23:11:02.170Z,59.40
2023-05-14T23:13:28.896Z,60.36
2023-05-14T23:15:55.554Z,61.32
2023-05-14T23:18:23.942Z,61.70
2023-05-14T23:20:50.729Z,62.21
2023-05-14T23:23:17.391Z,62.88
2023-05-14T23:25:44.182Z,62.62
2023-05-14T23:28:10.936Z,62.93
2023-05-14T23:30:37.527Z,63.13
2023-05-14T23:33:04.242Z,64.04
2023-05-14T23:35:32.360Z,63.59
2023-05-14T23:37:59.194Z,63.37
2023-05-14T23:40:25.935Z,63.45
2023-05-14T23:42:52.564Z,63.37
2023-05-14T23:45:19.220Z,63.05
2023-05-14T23:47:46.020Z,62.81
2023-05-14T23:50:12.683Z,62.57
2023-05-14T23:52:39.352Z,62.31
2023-05-14T23:55:06.490Z,62.25
2023-05-14T23:57:33.221Z,61.77
2023-05-14T23:59:59.937Z,61.91
